Current Weather

Nairobi Jkia

Nairobi Jkia, Kenya (HKJK)

Report from: Monday, May 23, 2022 10:30 AM EAT
Current time: Monday, May 23, 2022 11:14 AM EAT

Nearby weather
Weather history
Weather forecast

Temperature25.0°C (77.0°F)
Dew point14.0°C (57.2°F)
Winds 8 kts (4.1 m/s, 9.2 mph) South-Southwest (200°)
Visibility6.2 mi. (10 km)
Clouds Few clouds 2,500 ft. (762 m)
Altimeter30.18 in.Hg (1022 mB)
Relative humidity51 %
Density altitude1,088 ft. (331 m)
Remarks No significant changes expected in the next two hours
Flight conditions Visual Meteorological Conditions
Raw dataHKJK 230730Z 20008KT 9999 FEW025 25/14 Q1022 NOSIG
An error has occurred. This application may no longer respond until reloaded. Reload 🗙